createdAt,value
2023-04-18T00:01:16.333Z,100.00
2023-04-18T00:02:48.409Z,100.00
2023-04-18T00:04:21.005Z,100.00
2023-04-18T00:05:53.524Z,100.00
2023-04-18T00:07:25.751Z,100.00
2023-04-18T00:08:57.672Z,100.00
2023-04-18T00:10:29.607Z,100.00
2023-04-18T00:12:02.249Z,100.00
2023-04-18T00:13:34.226Z,100.00
2023-04-18T00:15:09.170Z,100.00
2023-04-18T00:16:41.143Z,100.00
2023-04-18T00:18:16.399Z,100.00
2023-04-18T00:19:48.290Z,100.00
2023-04-18T00:21:20.278Z,100.00
2023-04-18T00:22:53.441Z,100.00
2023-04-18T00:24:25.441Z,100.00
2023-04-18T00:25:57.554Z,100.00
2023-04-18T00:27:29.527Z,100.00
2023-04-18T00:29:03.253Z,100.00
2023-04-18T00:30:35.219Z,100.00
2023-04-18T00:32:09.690Z,100.00
2023-04-18T00:33:41.647Z,100.00
2023-04-18T00:35:13.567Z,100.00
2023-04-18T00:36:45.509Z,100.00
2023-04-18T00:38:17.463Z,100.00
2023-04-18T00:39:49.361Z,100.00
2023-04-18T00:41:22.426Z,100.00
2023-04-18T00:42:54.338Z,100.00
2023-04-18T00:44:26.246Z,100.00
2023-04-18T00:46:01.675Z,100.00
2023-04-18T00:47:34.132Z,100.00
2023-04-18T00:49:06.721Z,100.00
2023-04-18T00:50:38.900Z,100.00
2023-04-18T00:52:13.089Z,100.00
2023-04-18T00:53:46.340Z,100.00
2023-04-18T00:55:18.752Z,100.00
2023-04-18T00:56:50.693Z,100.00
2023-04-18T00:58:23.917Z,100.00
2023-04-18T00:59:57.024Z,100.00
2023-04-18T01:01:29.391Z,100.00
2023-04-18T01:03:01.552Z,100.00
2023-04-18T01:04:33.779Z,100.00
2023-04-18T01:06:06.084Z,100.00
2023-04-18T01:07:41.852Z,100.00
2023-04-18T01:09:14.182Z,100.00
2023-04-18T01:10:46.082Z,100.00
2023-04-18T01:12:20.705Z,100.00
2023-04-18T01:14:03.152Z,100.00
2023-04-18T01:15:35.048Z,100.00
2023-04-18T01:17:08.292Z,100.00
2023-04-18T01:18:40.494Z,100.00
2023-04-18T01:20:14.046Z,100.00
2023-04-18T01:21:46.045Z,100.00
2023-04-18T01:23:19.549Z,100.00
2023-04-18T01:24:51.459Z,100.00
2023-04-18T01:26:23.417Z,100.00
2023-04-18T01:27:55.332Z,100.00
2023-04-18T01:29:27.182Z,100.00
2023-04-18T01:30:59.088Z,100.00
2023-04-18T01:32:31.192Z,100.00
2023-04-18T01:34:03.860Z,100.00
2023-04-18T01:35:36.034Z,100.00
2023-04-18T01:37:08.100Z,100.00
2023-04-18T01:38:40.056Z,100.00
2023-04-18T01:40:12.313Z,100.00
2023-04-18T01:41:44.393Z,100.00
2023-04-18T01:43:16.365Z,100.00
2023-04-18T01:44:48.316Z,100.00
2023-04-18T01:46:20.203Z,100.00
2023-04-18T01:47:52.252Z,100.00
2023-04-18T01:49:24.311Z,100.00
2023-04-18T01:50:56.276Z,100.00
2023-04-18T01:52:28.278Z,100.00
2023-04-18T01:54:00.287Z,100.00
2023-04-18T01:55:32.181Z,100.00
2023-04-18T01:57:04.470Z,100.00
2023-04-18T01:58:37.555Z,100.00
2023-04-18T02:00:10.044Z,100.00
2023-04-18T02:01:47.925Z,100.00
2023-04-18T02:03:20.371Z,100.00
2023-04-18T02:04:52.487Z,100.00
2023-04-18T02:06:24.533Z,100.00
2023-04-18T02:07:56.445Z,100.00
2023-04-18T02:09:28.464Z,100.00
2023-04-18T02:11:01.574Z,100.00
2023-04-18T02:12:34.565Z,100.00
2023-04-18T02:14:06.953Z,100.00
2023-04-18T02:15:38.860Z,100.00
2023-04-18T02:17:10.785Z,100.00
2023-04-18T02:18:43.710Z,100.00
2023-04-18T02:20:15.971Z,100.00
2023-04-18T02:21:47.856Z,100.00
2023-04-18T02:23:19.833Z,100.00
2023-04-18T02:24:52.673Z,100.00
2023-04-18T02:26:24.735Z,100.00
2023-04-18T02:27:57.688Z,100.00
2023-04-18T02:29:30.842Z,100.00
2023-04-18T02:31:02.786Z,100.00
2023-04-18T02:32:34.864Z,100.00
2023-04-18T02:34:07.494Z,100.00
2023-04-18T02:35:39.515Z,100.00
2023-04-18T02:37:11.649Z,100.00
2023-04-18T02:38:45.841Z,100.00
2023-04-18T02:40:18.150Z,100.00
2023-04-18T02:41:50.135Z,100.00
2023-04-18T02:43:22.002Z,100.00
2023-04-18T02:44:54.089Z,100.00
2023-04-18T02:46:26.336Z,100.00
2023-04-18T02:47:58.515Z,100.00
2023-04-18T02:49:30.471Z,100.00
2023-04-18T02:51:04.434Z,100.00
2023-04-18T02:52:38.581Z,100.00
2023-04-18T02:54:11.042Z,100.00
2023-04-18T02:55:56.857Z,100.00
2023-04-18T02:57:36.321Z,100.00
2023-04-18T02:59:26.881Z,100.00
2023-04-18T03:01:26.345Z,100.00
2023-04-18T03:03:03.066Z,100.00
2023-04-18T03:04:45.660Z,100.00
2023-04-18T03:06:17.628Z,100.00
2023-04-18T03:07:49.713Z,100.00
2023-04-18T03:09:22.363Z,100.00
2023-04-18T03:11:00.116Z,100.00
2023-04-18T03:12:34.367Z,100.00
2023-04-18T03:14:07.114Z,100.00
2023-04-18T03:15:46.860Z,100.00
2023-04-18T03:17:18.865Z,100.00
2023-04-18T03:18:53.704Z,100.00
2023-04-18T03:20:27.244Z,100.00
2023-04-18T03:21:59.400Z,100.00
2023-04-18T03:23:32.003Z,100.00
2023-04-18T03:25:07.264Z,100.00
2023-04-18T03:26:47.895Z,100.00
2023-04-18T03:28:21.429Z,100.00
2023-04-18T03:29:53.341Z,100.00
2023-04-18T03:31:25.450Z,100.00
2023-04-18T03:32:57.407Z,100.00
2023-04-18T03:34:29.642Z,100.00
2023-04-18T03:36:01.785Z,100.00
2023-04-18T03:37:33.949Z,100.00
2023-04-18T03:39:06.873Z,100.00
2023-04-18T03:40:39.723Z,100.00
2023-04-18T03:42:19.044Z,100.00
2023-04-18T03:43:51.004Z,100.00
2023-04-18T03:45:22.921Z,100.00
2023-04-18T03:46:56.228Z,100.00
2023-04-18T03:48:29.963Z,100.00
2023-04-18T03:50:06.193Z,100.00
2023-04-18T03:51:48.090Z,100.00
2023-04-18T03:53:20.267Z,100.00
2023-04-18T03:54:52.264Z,100.00
2023-04-18T03:56:29.060Z,100.00
2023-04-18T03:58:01.312Z,100.00
2023-04-18T03:59:34.568Z,100.00
2023-04-18T04:01:07.985Z,100.00
2023-04-18T04:02:40.071Z,100.00
2023-04-18T04:04:14.297Z,100.00
2023-04-18T04:05:46.911Z,100.00
2023-04-18T04:07:20.624Z,100.00
2023-04-18T04:08:52.540Z,100.00
2023-04-18T04:10:28.676Z,100.00
2023-04-18T04:12:00.659Z,100.00
2023-04-18T04:13:32.848Z,100.00
2023-04-18T04:15:05.254Z,100.00
2023-04-18T04:16:38.326Z,100.00
2023-04-18T04:18:11.097Z,100.00
2023-04-18T04:19:46.829Z,100.00
2023-04-18T04:21:22.634Z,100.00
2023-04-18T04:22:59.124Z,100.00
2023-04-18T04:24:33.543Z,100.00
2023-04-18T04:26:05.992Z,100.00
2023-04-18T04:27:49.868Z,100.00
2023-04-18T04:29:21.921Z,100.00
2023-04-18T04:30:55.741Z,100.00
2023-04-18T04:32:28.661Z,100.00
2023-04-18T04:34:00.805Z,100.00
2023-04-18T04:35:35.057Z,100.00
2023-04-18T04:37:08.336Z,100.00
2023-04-18T04:38:47.549Z,100.00
2023-04-18T04:40:20.162Z,100.00
2023-04-18T04:41:55.755Z,100.00
2023-04-18T04:43:29.442Z,100.00
2023-04-18T04:45:03.206Z,100.00
2023-04-18T04:46:39.624Z,100.00
2023-04-18T04:48:19.081Z,100.00
2023-04-18T04:49:51.065Z,100.00
2023-04-18T04:51:23.337Z,100.00
2023-04-18T04:52:55.998Z,100.00
2023-04-18T04:54:28.109Z,100.00
2023-04-18T04:56:00.348Z,100.00
2023-04-18T04:57:32.576Z,100.00
2023-04-18T04:59:05.383Z,100.00
2023-04-18T05:00:41.559Z,100.00
2023-04-18T05:02:13.587Z,100.00
2023-04-18T05:03:46.466Z,100.00
2023-04-18T05:05:20.113Z,100.00
2023-04-18T05:06:52.130Z,100.00
2023-04-18T05:08:24.278Z,100.00
2023-04-18T05:09:56.364Z,100.00
2023-04-18T05:11:28.370Z,100.00
2023-04-18T05:13:00.386Z,100.00
2023-04-18T05:14:32.488Z,100.00
2023-04-18T05:16:04.777Z,100.00
2023-04-18T05:17:36.941Z,100.00
2023-04-18T05:19:09.074Z,100.00
2023-04-18T05:20:41.281Z,100.00
2023-04-18T05:22:13.251Z,100.00
2023-04-18T05:23:45.289Z,100.00
2023-04-18T05:25:17.348Z,100.00
2023-04-18T05:26:49.364Z,100.00
2023-04-18T05:28:24.080Z,100.00
2023-04-18T05:29:56.141Z,100.00
2023-04-18T05:31:29.447Z,100.00
2023-04-18T05:33:01.605Z,100.00
2023-04-18T05:34:38.595Z,100.00
2023-04-18T05:36:11.101Z,100.00
2023-04-18T05:37:43.187Z,100.00
2023-04-18T05:39:15.153Z,100.00
2023-04-18T05:40:47.192Z,100.00
2023-04-18T05:42:19.152Z,100.00
2023-04-18T05:44:04.265Z,100.00
2023-04-18T05:45:37.259Z,100.00
2023-04-18T05:47:09.310Z,100.00
2023-04-18T05:48:41.602Z,100.00
2023-04-18T05:50:13.582Z,100.00
2023-04-18T05:51:46.404Z,100.00
2023-04-18T05:53:18.415Z,100.00
2023-04-18T05:54:51.219Z,100.00
2023-04-18T05:56:23.247Z,100.00
2023-04-18T05:57:55.201Z,100.00
2023-04-18T05:59:27.265Z,100.00
2023-04-18T06:00:59.316Z,100.00
2023-04-18T06:02:31.395Z,100.00
2023-04-18T06:04:03.729Z,100.00
2023-04-18T06:05:36.032Z,100.00
2023-04-18T06:07:08.624Z,100.00
2023-04-18T06:08:40.783Z,100.00
2023-04-18T06:10:13.842Z,100.00
2023-04-18T06:11:45.959Z,100.00
2023-04-18T06:13:17.909Z,100.00
2023-04-18T06:14:50.294Z,100.00
2023-04-18T06:16:22.732Z,100.00
2023-04-18T06:17:54.889Z,100.00
2023-04-18T06:19:26.917Z,100.00
2023-04-18T06:20:58.965Z,100.00
2023-04-18T06:22:31.190Z,100.00
2023-04-18T06:24:03.203Z,100.00
2023-04-18T06:25:35.306Z,100.00
2023-04-18T06:27:10.833Z,100.00
2023-04-18T06:28:49.722Z,100.00
2023-04-18T06:30:22.393Z,100.00
2023-04-18T06:31:54.468Z,100.00
2023-04-18T06:33:26.599Z,100.00
2023-04-18T06:34:58.623Z,100.00
2023-04-18T06:36:30.675Z,100.00
2023-04-18T06:38:02.740Z,100.00
2023-04-18T06:39:34.776Z,100.00
2023-04-18T06:41:06.977Z,100.00
2023-04-18T06:42:39.319Z,100.00
2023-04-18T06:44:11.311Z,100.00
2023-04-18T06:45:43.376Z,100.00
2023-04-18T06:47:15.450Z,100.00
2023-04-18T06:48:48.567Z,100.00
2023-04-18T06:50:21.497Z,100.00
2023-04-18T06:51:53.566Z,100.00
2023-04-18T06:53:25.615Z,100.00
2023-04-18T06:54:57.626Z,100.00
2023-04-18T06:56:30.043Z,100.00
2023-04-18T06:58:02.055Z,100.00
2023-04-18T06:59:35.870Z,100.00
2023-04-18T07:01:07.857Z,100.00
2023-04-18T07:02:40.675Z,100.00
2023-04-18T07:04:12.874Z,100.00
2023-04-18T07:05:45.415Z,100.00
2023-04-18T07:07:17.420Z,100.00
2023-04-18T07:08:49.494Z,100.00
2023-04-18T07:10:21.702Z,100.00
2023-04-18T07:11:53.794Z,100.00
2023-04-18T07:13:25.797Z,100.00
2023-04-18T07:14:57.882Z,100.00
2023-04-18T07:16:29.924Z,100.00
2023-04-18T07:18:02.246Z,100.00
2023-04-18T07:19:34.211Z,100.00
2023-04-18T07:21:09.578Z,100.00
2023-04-18T07:22:41.770Z,100.00
2023-04-18T07:24:13.980Z,100.00
2023-04-18T07:25:46.303Z,100.00
2023-04-18T07:27:18.359Z,100.00
2023-04-18T07:28:50.574Z,100.00
2023-04-18T07:30:22.529Z,100.00
2023-04-18T07:31:54.848Z,100.00
2023-04-18T07:33:27.018Z,100.00
2023-04-18T07:34:59.487Z,100.00
2023-04-18T07:36:31.832Z,100.00
2023-04-18T07:38:04.048Z,100.00
2023-04-18T07:39:36.608Z,100.00
2023-04-18T07:41:08.683Z,100.00
2023-04-18T07:42:40.825Z,100.00
2023-04-18T07:44:13.168Z,100.00
2023-04-18T07:45:46.025Z,100.00
2023-04-18T07:47:22.335Z,100.00
2023-04-18T07:48:54.611Z,100.00
2023-04-18T07:50:27.206Z,100.00
2023-04-18T07:51:59.275Z,100.00
2023-04-18T07:53:31.341Z,100.00
2023-04-18T07:55:03.294Z,100.00
2023-04-18T07:56:35.317Z,100.00
2023-04-18T07:58:07.407Z,100.00
2023-04-18T07:59:39.532Z,100.00
2023-04-18T08:01:14.394Z,100.00
2023-04-18T08:02:46.807Z,100.00
2023-04-18T08:04:19.164Z,100.00
2023-04-18T08:05:52.208Z,100.00
2023-04-18T08:07:24.148Z,100.00
2023-04-18T08:08:56.212Z,100.00
2023-04-18T08:10:28.472Z,100.00
2023-04-18T08:12:00.536Z,100.00
2023-04-18T08:13:32.803Z,100.00
2023-04-18T08:15:05.321Z,100.00
2023-04-18T08:16:37.968Z,100.00
2023-04-18T08:18:10.317Z,100.00
2023-04-18T08:19:42.551Z,100.00
2023-04-18T08:21:14.924Z,100.00
2023-04-18T08:23:04.700Z,100.00
2023-04-18T08:24:39.226Z,100.00
2023-04-18T08:26:11.207Z,100.00
2023-04-18T08:27:43.796Z,100.00
2023-04-18T08:29:16.178Z,100.00
2023-04-18T08:30:49.499Z,100.00
2023-04-18T08:32:21.593Z,100.00
2023-04-18T08:33:53.654Z,100.00
2023-04-18T08:35:25.678Z,100.00
2023-04-18T08:36:57.735Z,100.00
2023-04-18T08:38:29.894Z,100.00
2023-04-18T08:40:04.053Z,100.00
2023-04-18T08:41:38.101Z,100.00
2023-04-18T08:43:14.349Z,100.00
2023-04-18T08:44:47.550Z,100.00
2023-04-18T08:46:19.857Z,100.00
2023-04-18T08:47:52.459Z,100.00
2023-04-18T08:49:25.201Z,100.00
2023-04-18T08:50:58.949Z,100.00
2023-04-18T08:52:32.841Z,100.00
2023-04-18T08:54:06.551Z,100.00
2023-04-18T08:55:38.707Z,100.00
2023-04-18T08:57:12.851Z,100.00
2023-04-18T08:58:45.426Z,100.00
2023-04-18T09:00:18.342Z,100.00
2023-04-18T09:01:51.036Z,100.00
2023-04-18T09:03:40.808Z,100.00
2023-04-18T09:05:15.221Z,100.00
2023-04-18T09:06:53.424Z,100.00
2023-04-18T09:08:25.560Z,100.00
2023-04-18T09:09:58.167Z,100.00
2023-04-18T09:11:32.105Z,100.00
2023-04-18T09:13:04.663Z,100.00
2023-04-18T09:14:37.085Z,100.00
2023-04-18T09:16:09.172Z,100.00
2023-04-18T09:17:49.630Z,100.00
2023-04-18T09:19:22.058Z,100.00
2023-04-18T09:20:55.355Z,100.00
2023-04-18T09:22:28.106Z,100.00
2023-04-18T09:24:29.684Z,100.00
2023-04-18T09:26:01.700Z,100.00
2023-04-18T09:27:35.179Z,100.00
2023-04-18T09:29:07.301Z,100.00
2023-04-18T09:30:41.164Z,100.00
2023-04-18T09:32:27.390Z,100.00
2023-04-18T09:34:00.961Z,100.00
2023-04-18T09:35:32.985Z,100.00
2023-04-18T09:37:08.886Z,100.00
2023-04-18T09:38:41.651Z,100.00
2023-04-18T09:40:20.620Z,100.00
2023-04-18T09:41:59.468Z,100.00
2023-04-18T09:43:31.599Z,100.00
2023-04-18T09:45:08.615Z,100.00
2023-04-18T09:46:40.783Z,100.00
2023-04-18T09:48:12.940Z,100.00
2023-04-18T09:49:44.949Z,100.00
2023-04-18T09:51:16.968Z,100.00
2023-04-18T09:52:49.071Z,100.00
2023-04-18T09:54:24.332Z,100.00
2023-04-18T09:55:57.801Z,100.00
2023-04-18T09:57:31.303Z,100.00
2023-04-18T09:59:09.915Z,100.00
2023-04-18T10:00:42.243Z,100.00
2023-04-18T10:02:23.642Z,100.00
2023-04-18T10:03:56.621Z,100.00
2023-04-18T10:05:29.592Z,100.00
2023-04-18T10:07:02.292Z,100.00
2023-04-18T10:08:34.956Z,100.00
2023-04-18T10:10:07.717Z,100.00
2023-04-18T10:11:39.619Z,100.00
2023-04-18T10:13:12.232Z,100.00
2023-04-18T10:14:44.664Z,100.00
2023-04-18T10:16:17.329Z,100.00
2023-04-18T10:18:05.030Z,100.00
2023-04-18T10:19:38.954Z,100.00
2023-04-18T10:21:11.037Z,100.00
2023-04-18T10:22:43.643Z,100.00
2023-04-18T10:24:53.639Z,100.00
2023-04-18T10:26:47.263Z,100.00
2023-04-18T10:28:21.284Z,100.00
2023-04-18T10:29:54.082Z,100.00
2023-04-18T10:31:26.607Z,100.00
2023-04-18T10:32:58.799Z,100.00
2023-04-18T10:34:30.958Z,100.00
2023-04-18T10:36:09.299Z,100.00
2023-04-18T10:37:51.362Z,100.00
2023-04-18T10:39:25.479Z,100.00
2023-04-18T10:41:25.527Z,100.00
2023-04-18T10:42:57.512Z,100.00
2023-04-18T10:44:29.532Z,100.00
2023-04-18T10:46:20.476Z,100.00
2023-04-18T10:48:26.194Z,100.00
2023-04-18T10:49:59.232Z,100.00
2023-04-18T10:51:31.333Z,100.00
2023-04-18T10:53:03.342Z,100.00
2023-04-18T10:54:47.296Z,100.00
2023-04-18T10:56:19.342Z,100.00
2023-04-18T10:57:51.813Z,100.00
2023-04-18T10:59:25.384Z,100.00
2023-04-18T11:00:57.601Z,100.00
2023-04-18T11:02:32.601Z,100.00
2023-04-18T11:04:13.197Z,100.00
2023-04-18T11:05:45.765Z,100.00
2023-04-18T11:07:18.336Z,100.00
2023-04-18T11:08:50.529Z,100.00
2023-04-18T11:10:24.729Z,100.00
2023-04-18T11:12:07.950Z,100.00
2023-04-18T11:13:58.561Z,100.00
2023-04-18T11:15:31.253Z,97.60
2023-04-18T11:17:19.438Z,100.00
2023-04-18T11:18:51.609Z,100.00
2023-04-18T11:20:23.742Z,100.00
2023-04-18T11:22:00.830Z,96.31
2023-04-18T11:23:32.971Z,98.31
2023-04-18T11:25:08.774Z,100.00
2023-04-18T11:26:40.985Z,100.00
2023-04-18T11:28:17.090Z,100.00
2023-04-18T11:29:53.437Z,100.00
2023-04-18T11:31:25.731Z,100.00
2023-04-18T11:32:58.010Z,100.00
2023-04-18T11:34:31.259Z,100.00
2023-04-18T11:36:03.373Z,100.00
2023-04-18T11:37:37.050Z,100.00
2023-04-18T11:39:10.789Z,100.00
2023-04-18T11:40:49.624Z,100.00
2023-04-18T11:42:26.694Z,100.00
2023-04-18T11:43:58.884Z,100.00
2023-04-18T11:45:30.967Z,100.00
2023-04-18T11:47:02.998Z,100.00
2023-04-18T11:48:39.202Z,100.00
2023-04-18T11:50:13.466Z,100.00
2023-04-18T11:51:46.629Z,100.00
2023-04-18T11:53:35.269Z,100.00
2023-04-18T11:55:17.818Z,100.00
2023-04-18T11:56:49.943Z,100.00
2023-04-18T11:58:30.712Z,100.00
2023-04-18T12:00:03.163Z,100.00
2023-04-18T12:01:41.052Z,100.00
2023-04-18T12:03:17.270Z,100.00
2023-04-18T12:04:54.405Z,100.00
2023-04-18T12:06:28.557Z,100.00
2023-04-18T12:08:06.333Z,100.00
2023-04-18T12:09:39.277Z,100.00
2023-04-18T12:11:20.742Z,100.00
2023-04-18T12:12:59.084Z,100.00
2023-04-18T12:14:36.940Z,100.00
2023-04-18T12:16:09.026Z,100.00
2023-04-18T12:17:44.564Z,100.00
2023-04-18T12:19:17.326Z,100.00
2023-04-18T12:20:50.837Z,100.00
2023-04-18T12:22:40.326Z,100.00
2023-04-18T12:24:18.576Z,100.00
2023-04-18T12:25:59.500Z,100.00
2023-04-18T12:28:00.630Z,100.00
2023-04-18T12:29:32.840Z,100.00
2023-04-18T12:31:08.294Z,100.00
2023-04-18T12:32:40.504Z,100.00
2023-04-18T12:34:12.868Z,100.00
2023-04-18T12:35:46.898Z,100.00
2023-04-18T12:37:25.737Z,100.00
2023-04-18T12:38:57.712Z,100.00
2023-04-18T12:40:30.543Z,100.00
2023-04-18T12:42:02.811Z,100.00
2023-04-18T12:43:35.084Z,100.00
2023-04-18T12:45:09.851Z,100.00
2023-04-18T12:46:42.023Z,100.00
2023-04-18T12:48:14.340Z,100.00
2023-04-18T12:49:46.220Z,100.00
2023-04-18T12:51:18.281Z,100.00
2023-04-18T12:52:54.816Z,100.00
2023-04-18T12:54:26.859Z,100.00
2023-04-18T12:55:58.912Z,100.00
2023-04-18T12:57:31.864Z,100.00
2023-04-18T12:59:03.900Z,100.00
2023-04-18T13:00:36.147Z,100.00
2023-04-18T13:02:08.366Z,100.00
2023-04-18T13:03:40.713Z,100.00
2023-04-18T13:05:16.074Z,100.00
2023-04-18T13:06:48.180Z,100.00
2023-04-18T13:08:20.144Z,100.00
2023-04-18T13:09:52.306Z,100.00
2023-04-18T13:11:28.786Z,99.90
2023-04-18T13:13:01.081Z,100.00
2023-04-18T13:14:33.278Z,99.79
2023-04-18T13:16:06.029Z,100.00
2023-04-18T13:17:38.985Z,100.00
2023-04-18T13:19:11.051Z,95.84
2023-04-18T13:20:44.288Z,92.81
2023-04-18T13:22:17.360Z,94.42
2023-04-18T13:23:49.481Z,95.63
2023-04-18T13:25:22.057Z,99.59
2023-04-18T13:26:54.355Z,100.00
2023-04-18T13:28:26.471Z,100.00
2023-04-18T13:29:58.643Z,100.00
2023-04-18T13:31:31.713Z,100.00
2023-04-18T13:33:03.910Z,100.00
2023-04-18T13:34:39.638Z,100.00
2023-04-18T13:36:11.718Z,100.00
2023-04-18T13:37:44.243Z,100.00
2023-04-18T13:39:16.933Z,100.00
2023-04-18T13:40:52.031Z,100.00
2023-04-18T13:42:43.564Z,100.00
2023-04-18T13:44:15.805Z,100.00
2023-04-18T13:45:48.014Z,100.00
2023-04-18T13:47:20.437Z,100.00
2023-04-18T13:48:52.668Z,100.00
2023-04-18T13:50:24.755Z,100.00
2023-04-18T13:51:59.622Z,99.86
2023-04-18T13:53:31.534Z,98.12
2023-04-18T13:55:04.199Z,100.00
2023-04-18T13:56:36.159Z,100.00
2023-04-18T13:58:09.808Z,100.00
2023-04-18T13:59:42.021Z,100.00
2023-04-18T14:01:14.423Z,100.00
2023-04-18T14:02:46.473Z,100.00
2023-04-18T14:04:20.620Z,100.00
2023-04-18T14:05:52.716Z,100.00
2023-04-18T14:07:24.733Z,100.00
2023-04-18T14:08:59.658Z,100.00
2023-04-18T14:10:31.921Z,100.00
2023-04-18T14:12:04.124Z,100.00
2023-04-18T14:13:36.390Z,100.00
2023-04-18T14:15:09.231Z,100.00
2023-04-18T14:16:41.361Z,100.00
2023-04-18T14:18:13.423Z,100.00
2023-04-18T14:19:45.544Z,100.00
2023-04-18T14:21:17.641Z,100.00
2023-04-18T14:22:52.923Z,100.00
2023-04-18T14:24:25.360Z,100.00
2023-04-18T14:25:57.363Z,96.11
2023-04-18T14:27:29.330Z,96.51
2023-04-18T14:29:01.373Z,97.74
2023-04-18T14:30:33.466Z,97.01
2023-04-18T14:32:06.703Z,96.98
2023-04-18T14:33:38.821Z,94.51
2023-04-18T14:35:11.096Z,90.30
2023-04-18T14:36:43.093Z,92.43
2023-04-18T14:38:15.773Z,93.70
2023-04-18T14:39:48.735Z,94.42
2023-04-18T14:41:20.821Z,90.91
2023-04-18T14:42:52.805Z,88.76
2023-04-18T14:44:24.874Z,85.60
2023-04-18T14:45:59.026Z,90.02
2023-04-18T14:47:34.936Z,92.98
2023-04-18T14:49:07.040Z,87.98
2023-04-18T14:50:39.416Z,88.18
2023-04-18T14:52:11.461Z,88.98
2023-04-18T14:53:44.082Z,91.15
2023-04-18T14:55:16.082Z,88.84
2023-04-18T14:56:48.031Z,92.46
2023-04-18T14:58:20.124Z,90.31
2023-04-18T14:59:53.159Z,91.07
2023-04-18T15:01:25.162Z,92.61
2023-04-18T15:02:57.312Z,96.64
2023-04-18T15:04:29.455Z,96.56
2023-04-18T15:06:01.850Z,99.25
2023-04-18T15:07:34.623Z,98.87
2023-04-18T15:09:07.372Z,100.00
2023-04-18T15:10:40.599Z,99.98
2023-04-18T15:12:12.669Z,100.00
2023-04-18T15:13:45.003Z,100.00
2023-04-18T15:15:17.410Z,100.00
2023-04-18T15:16:50.053Z,100.00
2023-04-18T15:18:22.494Z,99.92
2023-04-18T15:19:54.592Z,100.00
2023-04-18T15:21:27.591Z,100.00
2023-04-18T15:22:59.586Z,100.00
2023-04-18T15:24:31.679Z,100.00
2023-04-18T15:26:03.904Z,100.00
2023-04-18T15:27:36.063Z,94.02
2023-04-18T15:29:11.095Z,96.71
2023-04-18T15:30:43.273Z,94.94
2023-04-18T15:32:15.501Z,94.10
2023-04-18T15:33:47.576Z,95.43
2023-04-18T15:35:19.677Z,96.51
2023-04-18T15:36:51.849Z,92.58
2023-04-18T15:38:24.062Z,88.92
2023-04-18T15:39:57.404Z,94.00
2023-04-18T15:41:29.554Z,94.56
2023-04-18T15:43:01.720Z,95.66
2023-04-18T15:44:33.685Z,95.17
2023-04-18T15:46:05.851Z,91.74
2023-04-18T15:47:42.071Z,91.89
2023-04-18T15:49:14.196Z,91.03
2023-04-18T15:50:51.072Z,86.94
2023-04-18T15:52:23.052Z,93.80
2023-04-18T15:53:55.281Z,92.16
2023-04-18T15:55:27.492Z,94.40
2023-04-18T15:56:59.759Z,92.98
2023-04-18T15:58:32.018Z,92.83
2023-04-18T16:00:07.254Z,86.20
2023-04-18T16:01:39.395Z,87.07
2023-04-18T16:03:11.525Z,82.01
2023-04-18T16:04:43.735Z,83.47
2023-04-18T16:06:16.043Z,86.97
2023-04-18T16:07:48.151Z,86.21
2023-04-18T16:09:20.354Z,87.99
2023-04-18T16:10:52.927Z,86.47
2023-04-18T16:12:24.967Z,87.98
2023-04-18T16:13:56.990Z,88.54
2023-04-18T16:15:31.393Z,88.60
2023-04-18T16:17:03.973Z,83.10
2023-04-18T16:18:36.040Z,88.19
2023-04-18T16:20:09.376Z,84.13
2023-04-18T16:21:41.480Z,81.61
2023-04-18T16:23:13.515Z,84.37
2023-04-18T16:24:45.563Z,82.39
2023-04-18T16:26:17.795Z,83.29
2023-04-18T16:27:49.828Z,85.24
2023-04-18T16:29:21.876Z,85.17
2023-04-18T16:30:55.592Z,84.12
2023-04-18T16:32:28.010Z,84.82
2023-04-18T16:34:00.273Z,84.80
2023-04-18T16:35:32.518Z,86.46
2023-04-18T16:37:04.468Z,86.27
2023-04-18T16:38:36.481Z,85.30
2023-04-18T16:40:13.085Z,85.95
2023-04-18T16:41:45.260Z,85.57
2023-04-18T16:43:17.364Z,88.86
2023-04-18T16:44:49.525Z,85.29
2023-04-18T16:46:21.533Z,86.95
2023-04-18T16:47:53.568Z,87.95
2023-04-18T16:49:26.373Z,86.39
2023-04-18T16:50:58.745Z,86.05
2023-04-18T16:52:31.658Z,90.94
2023-04-18T16:54:03.826Z,91.24
2023-04-18T16:55:36.444Z,92.88
2023-04-18T16:57:08.510Z,91.79
2023-04-18T16:58:40.932Z,89.97
2023-04-18T17:00:13.950Z,88.66
2023-04-18T17:01:46.082Z,86.76
2023-04-18T17:03:18.200Z,88.18
2023-04-18T17:04:50.525Z,87.59
2023-04-18T17:06:25.013Z,84.65
2023-04-18T17:07:57.050Z,84.33
2023-04-18T17:09:29.029Z,87.90
2023-04-18T17:11:02.476Z,88.04
2023-04-18T17:12:34.450Z,87.13
2023-04-18T17:14:06.589Z,90.91
2023-04-18T17:15:38.730Z,93.75
2023-04-18T17:17:10.806Z,96.54
2023-04-18T17:18:42.780Z,98.33
2023-04-18T17:20:16.277Z,100.00
2023-04-18T17:21:49.345Z,100.00
2023-04-18T17:23:22.074Z,100.00
2023-04-18T17:24:54.082Z,100.00
2023-04-18T17:26:26.902Z,100.00
2023-04-18T17:28:00.970Z,100.00
2023-04-18T17:29:33.048Z,100.00
2023-04-18T17:31:05.295Z,100.00
2023-04-18T17:32:42.185Z,100.00
2023-04-18T17:34:14.181Z,100.00
2023-04-18T17:35:46.227Z,100.00
2023-04-18T17:37:19.872Z,100.00
2023-04-18T17:38:51.942Z,100.00
2023-04-18T17:40:24.175Z,100.00
2023-04-18T17:41:56.247Z,100.00
2023-04-18T17:43:28.363Z,100.00
2023-04-18T17:45:02.546Z,100.00
2023-04-18T17:46:34.737Z,100.00
2023-04-18T17:48:06.921Z,100.00
2023-04-18T17:49:39.050Z,100.00
2023-04-18T17:51:11.152Z,100.00
2023-04-18T17:52:43.427Z,100.00
2023-04-18T17:54:15.628Z,100.00
2023-04-18T17:55:50.809Z,100.00
2023-04-18T17:57:23.791Z,100.00
2023-04-18T17:58:56.845Z,100.00
2023-04-18T18:00:28.981Z,100.00
2023-04-18T18:02:00.967Z,100.00
2023-04-18T18:03:33.216Z,100.00
2023-04-18T18:05:05.823Z,100.00
2023-04-18T18:06:37.931Z,100.00
2023-04-18T18:08:10.419Z,100.00
2023-04-18T18:09:42.411Z,100.00
2023-04-18T18:11:14.463Z,100.00
2023-04-18T18:12:46.573Z,100.00
2023-04-18T18:14:18.556Z,100.00
2023-04-18T18:15:50.619Z,100.00
2023-04-18T18:17:32.250Z,100.00
2023-04-18T18:19:04.958Z,100.00
2023-04-18T18:20:36.833Z,100.00
2023-04-18T18:22:08.790Z,100.00
2023-04-18T18:23:41.583Z,100.00
2023-04-18T18:25:13.606Z,100.00
2023-04-18T18:26:46.004Z,100.00
2023-04-18T18:28:18.094Z,100.00
2023-04-18T18:29:50.729Z,100.00
2023-04-18T18:31:25.970Z,100.00
2023-04-18T18:32:58.059Z,100.00
2023-04-18T18:34:32.280Z,100.00
2023-04-18T18:36:04.560Z,100.00
2023-04-18T18:37:36.565Z,100.00
2023-04-18T18:39:08.763Z,100.00
2023-04-18T18:40:41.189Z,100.00
2023-04-18T18:42:13.234Z,100.00
2023-04-18T18:43:45.224Z,100.00
2023-04-18T18:45:18.034Z,100.00
2023-04-18T18:46:50.105Z,100.00
2023-04-18T18:48:22.376Z,100.00
2023-04-18T18:49:54.444Z,100.00
2023-04-18T18:51:26.658Z,100.00
2023-04-18T18:52:58.754Z,100.00
2023-04-18T18:54:30.924Z,100.00
2023-04-18T18:56:03.090Z,100.00
2023-04-18T18:57:35.191Z,100.00
2023-04-18T18:59:07.198Z,100.00
2023-04-18T19:00:39.259Z,100.00
2023-04-18T19:02:11.988Z,100.00
2023-04-18T19:03:44.134Z,100.00
2023-04-18T19:05:17.227Z,100.00
2023-04-18T19:06:49.337Z,100.00
2023-04-18T19:08:21.397Z,100.00
2023-04-18T19:09:55.496Z,100.00
2023-04-18T19:11:28.166Z,100.00
2023-04-18T19:13:00.745Z,100.00
2023-04-18T19:14:33.118Z,100.00
2023-04-18T19:16:05.671Z,100.00
2023-04-18T19:17:37.757Z,100.00
2023-04-18T19:19:10.433Z,100.00
2023-04-18T19:20:42.463Z,100.00
2023-04-18T19:22:14.500Z,100.00
2023-04-18T19:23:46.534Z,100.00
2023-04-18T19:25:18.488Z,100.00
2023-04-18T19:26:50.379Z,100.00
2023-04-18T19:28:23.228Z,100.00
2023-04-18T19:29:55.108Z,100.00
2023-04-18T19:31:27.181Z,100.00
2023-04-18T19:32:59.272Z,100.00
2023-04-18T19:34:31.309Z,100.00